sensor_id;sensor_type;location;lat;lon;timestamp;P1;durP1;ratioP1;P2;durP2;ratioP2
58756;SDS011;44527;47.460;19.016;2023-08-01T00:02:44;5.95;;;1.77;;
58756;SDS011;44527;47.460;19.016;2023-08-01T00:05:47;3.95;;;1.92;;
58756;SDS011;44527;47.460;19.016;2023-08-01T00:08:49;5.47;;;1.95;;
58756;SDS011;44527;47.460;19.016;2023-08-01T00:11:52;6.22;;;1.98;;
58756;SDS011;44527;47.460;19.016;2023-08-01T00:14:54;5.00;;;1.73;;
58756;SDS011;44527;47.460;19.016;2023-08-01T00:17:57;6.20;;;1.80;;
58756;SDS011;44527;47.460;19.016;2023-08-01T00:20:59;5.82;;;1.83;;
58756;SDS011;44527;47.460;19.016;2023-08-01T00:24:02;3.67;;;1.87;;
58756;SDS011;44527;47.460;19.016;2023-08-01T00:27:04;7.55;;;1.80;;
58756;SDS011;44527;47.460;19.016;2023-08-01T00:30:07;3.00;;;1.83;;
58756;SDS011;44527;47.460;19.016;2023-08-01T00:33:10;8.50;;;1.90;;
58756;SDS011;44527;47.460;19.016;2023-08-01T00:36:13;6.18;;;1.98;;
58756;SDS011;44527;47.460;19.016;2023-08-01T00:39:15;3.60;;;1.70;;
58756;SDS011;44527;47.460;19.016;2023-08-01T00:42:18;2.87;;;1.55;;
58756;SDS011;44527;47.460;19.016;2023-08-01T00:45:20;4.25;;;1.92;;
58756;SDS011;44527;47.460;19.016;2023-08-01T00:48:23;4.70;;;2.00;;
58756;SDS011;44527;47.460;19.016;2023-08-01T00:51:25;6.45;;;1.85;;
58756;SDS011;44527;47.460;19.016;2023-08-01T00:54:30;3.53;;;1.60;;
58756;SDS011;44527;47.460;19.016;2023-08-01T00:57:37;5.63;;;1.40;;
58756;SDS011;44527;47.460;19.016;2023-08-01T01:00:40;9.30;;;1.90;;
58756;SDS011;44527;47.460;19.016;2023-08-01T01:03:43;5.32;;;1.92;;
58756;SDS011;44527;47.460;19.016;2023-08-01T01:06:48;5.78;;;1.80;;
58756;SDS011;44527;47.460;19.016;2023-08-01T01:09:55;3.53;;;1.65;;
58756;SDS011;44527;47.460;19.016;2023-08-01T01:12:57;4.07;;;1.80;;
58756;SDS011;44527;47.460;19.016;2023-08-01T01:15:59;6.30;;;1.80;;
58756;SDS011;44527;47.460;19.016;2023-08-01T01:19:08;4.82;;;2.10;;
58756;SDS011;44527;47.460;19.016;2023-08-01T01:25:13;7.72;;;1.87;;
58756;SDS011;44527;47.460;19.016;2023-08-01T01:28:17;4.05;;;1.75;;
58756;SDS011;44527;47.460;19.016;2023-08-01T01:31:21;3.03;;;1.50;;
58756;SDS011;44527;47.460;19.016;2023-08-01T01:34:23;4.60;;;1.98;;
58756;SDS011;44527;47.460;19.016;2023-08-01T01:37:26;4.93;;;1.92;;
58756;SDS011;44527;47.460;19.016;2023-08-01T01:40:29;6.20;;;1.92;;
58756;SDS011;44527;47.460;19.016;2023-08-01T01:43:34;6.78;;;2.28;;
58756;SDS011;44527;47.460;19.016;2023-08-01T01:46:37;3.95;;;1.80;;
58756;SDS011;44527;47.460;19.016;2023-08-01T01:49:40;5.40;;;1.90;;
58756;SDS011;44527;47.460;19.016;2023-08-01T01:52:42;3.95;;;1.90;;
58756;SDS011;44527;47.460;19.016;2023-08-01T01:55:45;6.22;;;1.70;;
58756;SDS011;44527;47.460;19.016;2023-08-01T01:58:47;2.92;;;1.60;;
58756;SDS011;44527;47.460;19.016;2023-08-01T02:01:50;4.50;;;2.08;;
58756;SDS011;44527;47.460;19.016;2023-08-01T02:04:53;4.60;;;1.75;;
58756;SDS011;44527;47.460;19.016;2023-08-01T02:07:55;6.05;;;1.92;;
58756;SDS011;44527;47.460;19.016;2023-08-01T02:10:58;3.58;;;1.77;;
58756;SDS011;44527;47.460;19.016;2023-08-01T02:14:00;6.60;;;2.25;;
58756;SDS011;44527;47.460;19.016;2023-08-01T02:17:05;4.97;;;2.08;;
58756;SDS011;44527;47.460;19.016;2023-08-01T02:20:07;3.35;;;1.62;;
58756;SDS011;44527;47.460;19.016;2023-08-01T02:23:10;6.72;;;2.05;;
58756;SDS011;44527;47.460;19.016;2023-08-01T02:26:13;9.23;;;2.05;;
58756;SDS011;44527;47.460;19.016;2023-08-01T02:29:16;4.45;;;1.95;;
58756;SDS011;44527;47.460;19.016;2023-08-01T02:32:19;5.80;;;1.90;;
58756;SDS011;44527;47.460;19.016;2023-08-01T02:35:21;5.00;;;2.30;;
58756;SDS011;44527;47.460;19.016;2023-08-01T02:38:24;5.50;;;2.22;;
58756;SDS011;44527;47.460;19.016;2023-08-01T02:41:26;10.20;;;2.12;;
58756;SDS011;44527;47.460;19.016;2023-08-01T02:44:29;4.28;;;1.70;;
58756;SDS011;44527;47.460;19.016;2023-08-01T02:47:31;3.62;;;1.70;;
58756;SDS011;44527;47.460;19.016;2023-08-01T02:50:33;5.47;;;2.00;;
58756;SDS011;44527;47.460;19.016;2023-08-01T02:53:36;5.10;;;1.70;;
58756;SDS011;44527;47.460;19.016;2023-08-01T02:56:38;3.90;;;1.98;;
58756;SDS011;44527;47.460;19.016;2023-08-01T02:59:44;3.87;;;1.45;;
58756;SDS011;44527;47.460;19.016;2023-08-01T03:02:46;6.45;;;1.80;;
58756;SDS011;44527;47.460;19.016;2023-08-01T03:05:49;2.72;;;1.70;;
58756;SDS011;44527;47.460;19.016;2023-08-01T03:08:51;2.70;;;1.83;;
58756;SDS011;44527;47.460;19.016;2023-08-01T03:11:54;6.40;;;2.20;;
58756;SDS011;44527;47.460;19.016;2023-08-01T03:14:56;6.43;;;1.67;;
58756;SDS011;44527;47.460;19.016;2023-08-01T03:17:58;5.62;;;1.92;;
58756;SDS011;44527;47.460;19.016;2023-08-01T03:21:01;6.25;;;2.12;;
58756;SDS011;44527;47.460;19.016;2023-08-01T03:24:06;5.47;;;2.00;;
58756;SDS011;44527;47.460;19.016;2023-08-01T03:27:10;7.07;;;2.00;;
58756;SDS011;44527;47.460;19.016;2023-08-01T03:30:13;4.95;;;1.65;;
58756;SDS011;44527;47.460;19.016;2023-08-01T03:33:18;5.80;;;1.70;;
58756;SDS011;44527;47.460;19.016;2023-08-01T03:36:24;5.87;;;2.20;;
58756;SDS011;44527;47.460;19.016;2023-08-01T03:39:27;6.05;;;1.90;;
58756;SDS011;44527;47.460;19.016;2023-08-01T03:42:29;5.95;;;2.40;;
58756;SDS011;44527;47.460;19.016;2023-08-01T03:45:32;2.78;;;1.73;;
58756;SDS011;44527;47.460;19.016;2023-08-01T03:48:35;11.25;;;2.10;;
58756;SDS011;44527;47.460;19.016;2023-08-01T03:51:37;3.60;;;1.70;;
58756;SDS011;44527;47.460;19.016;2023-08-01T03:54:40;7.55;;;2.17;;
58756;SDS011;44527;47.460;19.016;2023-08-01T03:57:43;3.97;;;2.00;;
58756;SDS011;44527;47.460;19.016;2023-08-01T04:00:45;11.35;;;2.30;;
58756;SDS011;44527;47.460;19.016;2023-08-01T04:03:48;6.57;;;1.65;;
58756;SDS011;44527;47.460;19.016;2023-08-01T04:06:50;5.07;;;2.05;;
58756;SDS011;44527;47.460;19.016;2023-08-01T04:09:53;7.87;;;1.83;;
58756;SDS011;44527;47.460;19.016;2023-08-01T04:12:55;5.07;;;1.73;;
58756;SDS011;44527;47.460;19.016;2023-08-01T04:15:58;7.78;;;2.53;;
58756;SDS011;44527;47.460;19.016;2023-08-01T04:19:00;7.65;;;2.10;;
58756;SDS011;44527;47.460;19.016;2023-08-01T04:22:03;9.93;;;2.17;;
58756;SDS011;44527;47.460;19.016;2023-08-01T04:25:05;4.68;;;2.12;;
58756;SDS011;44527;47.460;19.016;2023-08-01T04:28:08;5.07;;;1.95;;
58756;SDS011;44527;47.460;19.016;2023-08-01T04:31:10;2.83;;;1.98;;
58756;SDS011;44527;47.460;19.016;2023-08-01T04:34:13;10.30;;;2.80;;
58756;SDS011;44527;47.460;19.016;2023-08-01T04:37:15;6.30;;;2.00;;
58756;SDS011;44527;47.460;19.016;2023-08-01T04:40:18;6.65;;;2.22;;
58756;SDS011;44527;47.460;19.016;2023-08-01T04:43:20;4.87;;;2.30;;
58756;SDS011;44527;47.460;19.016;2023-08-01T04:46:23;2.85;;;1.83;;
58756;SDS011;44527;47.460;19.016;2023-08-01T04:49:25;8.18;;;2.37;;
58756;SDS011;44527;47.460;19.016;2023-08-01T04:52:27;6.18;;;2.37;;
58756;SDS011;44527;47.460;19.016;2023-08-01T04:55:30;5.75;;;1.85;;
58756;SDS011;44527;47.460;19.016;2023-08-01T04:58:32;8.68;;;2.28;;
58756;SDS011;44527;47.460;19.016;2023-08-01T05:01:34;8.57;;;2.97;;
58756;SDS011;44527;47.460;19.016;2023-08-01T05:04:37;11.65;;;2.20;;
58756;SDS011;44527;47.460;19.016;2023-08-01T05:07:39;6.40;;;1.98;;
58756;SDS011;44527;47.460;19.016;2023-08-01T05:10:42;7.40;;;2.67;;
58756;SDS011;44527;47.460;19.016;2023-08-01T05:13:44;7.03;;;2.30;;
58756;SDS011;44527;47.460;19.016;2023-08-01T05:16:46;9.32;;;2.47;;
58756;SDS011;44527;47.460;19.016;2023-08-01T05:19:49;9.52;;;2.65;;
58756;SDS011;44527;47.460;19.016;2023-08-01T05:22:51;8.75;;;2.90;;
58756;SDS011;44527;47.460;19.016;2023-08-01T05:25:57;7.93;;;3.00;;
58756;SDS011;44527;47.460;19.016;2023-08-01T05:28:59;9.93;;;2.80;;
58756;SDS011;44527;47.460;19.016;2023-08-01T05:32:01;5.85;;;2.92;;
58756;SDS011;44527;47.460;19.016;2023-08-01T05:35:04;7.72;;;2.80;;
58756;SDS011;44527;47.460;19.016;2023-08-01T05:38:07;6.43;;;3.00;;
58756;SDS011;44527;47.460;19.016;2023-08-01T05:41:09;11.93;;;3.50;;
58756;SDS011;44527;47.460;19.016;2023-08-01T05:44:11;15.35;;;3.22;;
58756;SDS011;44527;47.460;19.016;2023-08-01T05:47:14;8.80;;;2.87;;
58756;SDS011;44527;47.460;19.016;2023-08-01T05:50:16;12.35;;;3.20;;
58756;SDS011;44527;47.460;19.016;2023-08-01T05:53:19;14.40;;;3.50;;
58756;SDS011;44527;47.460;19.016;2023-08-01T05:56:21;54.40;;;7.07;;
58756;SDS011;44527;47.460;19.016;2023-08-01T05:59:24;40.42;;;4.70;;
58756;SDS011;44527;47.460;19.016;2023-08-01T06:02:26;14.87;;;4.12;;
58756;SDS011;44527;47.460;19.016;2023-08-01T06:05:29;13.88;;;3.85;;
58756;SDS011;44527;47.460;19.016;2023-08-01T06:08:33;17.23;;;4.57;;
58756;SDS011;44527;47.460;19.016;2023-08-01T06:11:35;16.87;;;4.03;;
58756;SDS011;44527;47.460;19.016;2023-08-01T06:14:37;8.18;;;4.10;;
58756;SDS011;44527;47.460;19.016;2023-08-01T06:17:40;10.30;;;4.35;;
58756;SDS011;44527;47.460;19.016;2023-08-01T06:20:43;16.25;;;4.72;;
58756;SDS011;44527;47.460;19.016;2023-08-01T06:23:45;15.30;;;4.40;;
58756;SDS011;44527;47.460;19.016;2023-08-01T06:26:48;47.97;;;5.43;;
58756;SDS011;44527;47.460;19.016;2023-08-01T06:29:50;9.95;;;3.83;;
58756;SDS011;44527;47.460;19.016;2023-08-01T06:32:52;16.33;;;4.30;;
58756;SDS011;44527;47.460;19.016;2023-08-01T06:35:55;10.23;;;3.70;;
58756;SDS011;44527;47.460;19.016;2023-08-01T06:38:57;9.52;;;2.67;;
58756;SDS011;44527;47.460;19.016;2023-08-01T06:42:01;8.93;;;2.40;;
58756;SDS011;44527;47.460;19.016;2023-08-01T06:45:03;9.55;;;2.15;;
58756;SDS011;44527;47.460;19.016;2023-08-01T06:48:34;10.90;;;2.37;;
58756;SDS011;44527;47.460;19.016;2023-08-01T06:52:00;7.20;;;2.40;;
58756;SDS011;44527;47.460;19.016;2023-08-01T06:55:02;6.12;;;2.25;;
58756;SDS011;44527;47.460;19.016;2023-08-01T06:58:07;10.18;;;1.98;;
58756;SDS011;44527;47.460;19.016;2023-08-01T07:01:10;8.75;;;1.73;;
58756;SDS011;44527;47.460;19.016;2023-08-01T07:04:12;6.22;;;2.28;;
58756;SDS011;44527;47.460;19.016;2023-08-01T07:07:16;7.95;;;1.90;;
58756;SDS011;44527;47.460;19.016;2023-08-01T07:10:18;15.35;;;2.50;;
58756;SDS011;44527;47.460;19.016;2023-08-01T07:13:23;12.90;;;1.95;;
58756;SDS011;44527;47.460;19.016;2023-08-01T07:16:27;10.32;;;1.92;;
58756;SDS011;44527;47.460;19.016;2023-08-01T07:19:30;7.22;;;1.73;;
58756;SDS011;44527;47.460;19.016;2023-08-01T07:22:32;6.57;;;1.85;;
58756;SDS011;44527;47.460;19.016;2023-08-01T07:25:35;6.28;;;1.37;;
58756;SDS011;44527;47.460;19.016;2023-08-01T07:28:37;6.97;;;2.08;;
58756;SDS011;44527;47.460;19.016;2023-08-01T07:31:40;3.80;;;1.60;;
58756;SDS011;44527;47.460;19.016;2023-08-01T07:34:42;7.78;;;1.92;;
58756;SDS011;44527;47.460;19.016;2023-08-01T07:37:45;4.45;;;1.55;;
58756;SDS011;44527;47.460;19.016;2023-08-01T07:40:47;6.65;;;1.45;;
58756;SDS011;44527;47.460;19.016;2023-08-01T07:43:50;5.85;;;1.87;;
58756;SDS011;44527;47.460;19.016;2023-08-01T07:46:52;3.65;;;1.60;;
58756;SDS011;44527;47.460;19.016;2023-08-01T07:49:55;3.05;;;1.85;;
58756;SDS011;44527;47.460;19.016;2023-08-01T07:52:57;8.57;;;1.45;;
58756;SDS011;44527;47.460;19.016;2023-08-01T07:56:00;5.30;;;1.58;;
58756;SDS011;44527;47.460;19.016;2023-08-01T07:59:08;2.72;;;1.60;;
58756;SDS011;44527;47.460;19.016;2023-08-01T08:02:11;6.43;;;1.83;;
58756;SDS011;44527;47.460;19.016;2023-08-01T08:05:13;4.05;;;1.50;;
58756;SDS011;44527;47.460;19.016;2023-08-01T08:08:16;3.30;;;1.45;;
58756;SDS011;44527;47.460;19.016;2023-08-01T08:11:18;8.98;;;2.20;;
58756;SDS011;44527;47.460;19.016;2023-08-01T08:14:20;7.00;;;1.60;;
58756;SDS011;44527;47.460;19.016;2023-08-01T08:17:25;5.65;;;2.10;;
58756;SDS011;44527;47.460;19.016;2023-08-01T08:20:27;3.55;;;1.98;;
58756;SDS011;44527;47.460;19.016;2023-08-01T08:23:30;4.05;;;2.00;;
58756;SDS011;44527;47.460;19.016;2023-08-01T08:26:32;6.32;;;1.60;;
58756;SDS011;44527;47.460;19.016;2023-08-01T08:29:40;5.35;;;1.87;;
58756;SDS011;44527;47.460;19.016;2023-08-01T08:32:42;5.20;;;1.90;;
58756;SDS011;44527;47.460;19.016;2023-08-01T08:35:45;8.07;;;1.87;;
58756;SDS011;44527;47.460;19.016;2023-08-01T08:38:47;5.37;;;2.25;;
58756;SDS011;44527;47.460;19.016;2023-08-01T08:41:51;5.85;;;1.87;;
58756;SDS011;44527;47.460;19.016;2023-08-01T08:44:54;4.78;;;2.00;;
58756;SDS011;44527;47.460;19.016;2023-08-01T08:48:00;11.10;;;2.08;;
58756;SDS011;44527;47.460;19.016;2023-08-01T08:51:07;6.30;;;2.00;;
58756;SDS011;44527;47.460;19.016;2023-08-01T08:54:11;5.70;;;2.30;;
58756;SDS011;44527;47.460;19.016;2023-08-01T08:57:15;5.20;;;2.08;;
58756;SDS011;44527;47.460;19.016;2023-08-01T09:00:19;3.45;;;2.00;;
58756;SDS011;44527;47.460;19.016;2023-08-01T09:03:22;5.75;;;1.70;;
58756;SDS011;44527;47.460;19.016;2023-08-01T09:06:28;6.93;;;2.15;;
58756;SDS011;44527;47.460;19.016;2023-08-01T09:09:34;3.92;;;1.58;;
58756;SDS011;44527;47.460;19.016;2023-08-01T09:12:36;3.50;;;1.90;;
58756;SDS011;44527;47.460;19.016;2023-08-01T09:15:39;7.22;;;1.98;;
58756;SDS011;44527;47.460;19.016;2023-08-01T09:18:50;5.70;;;2.00;;
58756;SDS011;44527;47.460;19.016;2023-08-01T09:21:53;3.95;;;2.17;;
58756;SDS011;44527;47.460;19.016;2023-08-01T09:24:56;4.43;;;1.62;;
58756;SDS011;44527;47.460;19.016;2023-08-01T09:27:58;8.38;;;2.28;;
58756;SDS011;44527;47.460;19.016;2023-08-01T09:31:01;3.10;;;1.50;;
58756;SDS011;44527;47.460;19.016;2023-08-01T09:34:05;8.10;;;2.20;;
58756;SDS011;44527;47.460;19.016;2023-08-01T09:37:08;5.28;;;1.90;;
58756;SDS011;44527;47.460;19.016;2023-08-01T09:40:11;3.53;;;1.70;;
58756;SDS011;44527;47.460;19.016;2023-08-01T09:43:15;2.53;;;1.60;;
58756;SDS011;44527;47.460;19.016;2023-08-01T09:46:18;2.60;;;1.30;;
58756;SDS011;44527;47.460;19.016;2023-08-01T09:49:21;6.70;;;1.80;;
58756;SDS011;44527;47.460;19.016;2023-08-01T09:52:27;4.93;;;1.92;;
58756;SDS011;44527;47.460;19.016;2023-08-01T09:55:34;3.10;;;1.75;;
58756;SDS011;44527;47.460;19.016;2023-08-01T09:58:36;5.28;;;1.70;;
58756;SDS011;44527;47.460;19.016;2023-08-01T10:01:39;3.35;;;1.50;;
58756;SDS011;44527;47.460;19.016;2023-08-01T10:04:43;4.35;;;1.95;;
58756;SDS011;44527;47.460;19.016;2023-08-01T10:07:46;1.90;;;1.30;;
58756;SDS011;44527;47.460;19.016;2023-08-01T10:10:51;3.55;;;1.60;;
58756;SDS011;44527;47.460;19.016;2023-08-01T10:13:54;1.90;;;1.23;;
58756;SDS011;44527;47.460;19.016;2023-08-01T10:16:58;5.15;;;1.62;;
58756;SDS011;44527;47.460;19.016;2023-08-01T10:20:01;3.65;;;1.62;;
58756;SDS011;44527;47.460;19.016;2023-08-01T10:23:05;3.17;;;1.55;;
58756;SDS011;44527;47.460;19.016;2023-08-01T10:26:09;13.38;;;1.48;;
58756;SDS011;44527;47.460;19.016;2023-08-01T10:29:13;3.45;;;1.45;;
58756;SDS011;44527;47.460;19.016;2023-08-01T10:32:15;2.92;;;1.42;;
58756;SDS011;44527;47.460;19.016;2023-08-01T10:35:30;3.78;;;1.37;;
58756;SDS011;44527;47.460;19.016;2023-08-01T10:38:46;3.80;;;1.77;;
58756;SDS011;44527;47.460;19.016;2023-08-01T10:41:59;2.47;;;1.52;;
58756;SDS011;44527;47.460;19.016;2023-08-01T10:45:02;8.35;;;1.75;;
58756;SDS011;44527;47.460;19.016;2023-08-01T10:48:09;8.27;;;1.85;;
58756;SDS011;44527;47.460;19.016;2023-08-01T10:51:13;2.90;;;1.60;;
58756;SDS011;44527;47.460;19.016;2023-08-01T10:54:22;3.75;;;1.40;;
58756;SDS011;44527;47.460;19.016;2023-08-01T10:57:26;5.80;;;1.77;;
58756;SDS011;44527;47.460;19.016;2023-08-01T11:00:29;3.65;;;1.48;;
58756;SDS011;44527;47.460;19.016;2023-08-01T11:03:35;4.32;;;2.03;;
58756;SDS011;44527;47.460;19.016;2023-08-01T11:06:43;6.00;;;1.60;;
58756;SDS011;44527;47.460;19.016;2023-08-01T11:09:46;3.85;;;1.40;;
58756;SDS011;44527;47.460;19.016;2023-08-01T11:12:48;7.37;;;1.70;;
58756;SDS011;44527;47.460;19.016;2023-08-01T11:15:51;3.12;;;1.52;;
58756;SDS011;44527;47.460;19.016;2023-08-01T11:18:55;2.17;;;1.27;;
58756;SDS011;44527;47.460;19.016;2023-08-01T11:21:59;4.95;;;1.50;;
58756;SDS011;44527;47.460;19.016;2023-08-01T11:25:11;6.30;;;1.40;;
58756;SDS011;44527;47.460;19.016;2023-08-01T11:28:14;6.15;;;1.73;;
58756;SDS011;44527;47.460;19.016;2023-08-01T11:31:18;8.90;;;1.40;;
58756;SDS011;44527;47.460;19.016;2023-08-01T11:34:21;3.53;;;1.48;;
58756;SDS011;44527;47.460;19.016;2023-08-01T11:37:25;4.95;;;1.33;;
58756;SDS011;44527;47.460;19.016;2023-08-01T11:40:28;5.68;;;1.30;;
58756;SDS011;44527;47.460;19.016;2023-08-01T11:43:51;8.35;;;1.60;;
58756;SDS011;44527;47.460;19.016;2023-08-01T11:46:54;7.22;;;1.75;;
58756;SDS011;44527;47.460;19.016;2023-08-01T11:49:56;2.62;;;1.37;;
58756;SDS011;44527;47.460;19.016;2023-08-01T11:52:59;4.30;;;1.80;;
58756;SDS011;44527;47.460;19.016;2023-08-01T11:56:02;3.17;;;1.52;;
58756;SDS011;44527;47.460;19.016;2023-08-01T11:59:11;8.15;;;1.33;;
58756;SDS011;44527;47.460;19.016;2023-08-01T12:05:27;3.60;;;1.60;;
58756;SDS011;44527;47.460;19.016;2023-08-01T12:08:31;5.47;;;1.65;;
58756;SDS011;44527;47.460;19.016;2023-08-01T12:11:37;5.85;;;1.58;;
58756;SDS011;44527;47.460;19.016;2023-08-01T12:14:43;5.20;;;1.40;;
58756;SDS011;44527;47.460;19.016;2023-08-01T12:17:45;3.17;;;1.50;;
58756;SDS011;44527;47.460;19.016;2023-08-01T12:20:48;2.92;;;1.55;;
58756;SDS011;44527;47.460;19.016;2023-08-01T12:23:50;9.13;;;1.45;;
58756;SDS011;44527;47.460;19.016;2023-08-01T12:26:53;11.12;;;1.45;;
58756;SDS011;44527;47.460;19.016;2023-08-01T12:29:55;5.78;;;1.83;;
58756;SDS011;44527;47.460;19.016;2023-08-01T12:32:58;6.12;;;1.40;;
58756;SDS011;44527;47.460;19.016;2023-08-01T12:36:00;3.55;;;1.58;;
58756;SDS011;44527;47.460;19.016;2023-08-01T12:39:05;6.50;;;1.30;;
58756;SDS011;44527;47.460;19.016;2023-08-01T12:42:12;2.33;;;1.40;;
58756;SDS011;44527;47.460;19.016;2023-08-01T12:45:15;5.07;;;1.65;;
58756;SDS011;44527;47.460;19.016;2023-08-01T12:48:17;8.02;;;1.60;;
58756;SDS011;44527;47.460;19.016;2023-08-01T12:51:19;6.93;;;1.30;;
58756;SDS011;44527;47.460;19.016;2023-08-01T12:54:22;2.78;;;1.60;;
58756;SDS011;44527;47.460;19.016;2023-08-01T12:57:25;4.50;;;1.12;;
58756;SDS011;44527;47.460;19.016;2023-08-01T13:00:30;7.75;;;1.02;;
58756;SDS011;44527;47.460;19.016;2023-08-01T13:03:33;6.72;;;1.30;;
58756;SDS011;44527;47.460;19.016;2023-08-01T13:06:35;8.23;;;1.45;;
58756;SDS011;44527;47.460;19.016;2023-08-01T13:09:38;5.35;;;1.40;;
58756;SDS011;44527;47.460;19.016;2023-08-01T13:12:40;3.37;;;1.40;;
58756;SDS011;44527;47.460;19.016;2023-08-01T13:15:43;2.37;;;1.40;;
58756;SDS011;44527;47.460;19.016;2023-08-01T13:18:46;7.85;;;1.37;;
58756;SDS011;44527;47.460;19.016;2023-08-01T13:21:50;2.58;;;1.33;;
58756;SDS011;44527;47.460;19.016;2023-08-01T13:24:53;3.72;;;1.60;;
58756;SDS011;44527;47.460;19.016;2023-08-01T13:27:55;3.40;;;1.17;;
58756;SDS011;44527;47.460;19.016;2023-08-01T13:30:57;4.32;;;1.30;;
58756;SDS011;44527;47.460;19.016;2023-08-01T13:34:00;5.07;;;1.15;;
58756;SDS011;44527;47.460;19.016;2023-08-01T13:37:02;4.65;;;1.50;;
58756;SDS011;44527;47.460;19.016;2023-08-01T13:40:05;3.17;;;1.30;;
58756;SDS011;44527;47.460;19.016;2023-08-01T13:43:08;5.78;;;1.70;;
58756;SDS011;44527;47.460;19.016;2023-08-01T13:46:12;2.83;;;1.40;;
58756;SDS011;44527;47.460;19.016;2023-08-01T13:49:30;2.60;;;1.48;;
58756;SDS011;44527;47.460;19.016;2023-08-01T13:52:32;3.85;;;1.60;;
58756;SDS011;44527;47.460;19.016;2023-08-01T13:55:35;3.08;;;1.45;;
58756;SDS011;44527;47.460;19.016;2023-08-01T13:58:38;2.87;;;1.20;;
58756;SDS011;44527;47.460;19.016;2023-08-01T14:01:41;12.37;;;1.75;;
58756;SDS011;44527;47.460;19.016;2023-08-01T14:04:44;8.45;;;1.80;;
58756;SDS011;44527;47.460;19.016;2023-08-01T14:07:46;2.85;;;1.30;;
58756;SDS011;44527;47.460;19.016;2023-08-01T14:10:48;3.00;;;1.42;;
58756;SDS011;44527;47.460;19.016;2023-08-01T14:13:51;6.22;;;1.77;;
58756;SDS011;44527;47.460;19.016;2023-08-01T14:16:54;6.35;;;1.40;;
58756;SDS011;44527;47.460;19.016;2023-08-01T14:19:56;6.07;;;1.70;;
58756;SDS011;44527;47.460;19.016;2023-08-01T14:22:59;5.10;;;1.73;;
58756;SDS011;44527;47.460;19.016;2023-08-01T14:26:01;4.15;;;1.62;;
58756;SDS011;44527;47.460;19.016;2023-08-01T14:29:04;2.72;;;1.70;;
58756;SDS011;44527;47.460;19.016;2023-08-01T14:32:06;5.28;;;1.83;;
58756;SDS011;44527;47.460;19.016;2023-08-01T14:35:09;10.82;;;1.50;;
58756;SDS011;44527;47.460;19.016;2023-08-01T14:38:12;6.93;;;1.12;;
58756;SDS011;44527;47.460;19.016;2023-08-01T14:41:15;7.72;;;1.40;;
58756;SDS011;44527;47.460;19.016;2023-08-01T14:44:37;8.90;;;1.70;;
58756;SDS011;44527;47.460;19.016;2023-08-01T14:47:40;2.58;;;1.37;;
58756;SDS011;44527;47.460;19.016;2023-08-01T14:50:44;4.22;;;1.48;;
58756;SDS011;44527;47.460;19.016;2023-08-01T14:53:47;9.93;;;1.20;;
58756;SDS011;44527;47.460;19.016;2023-08-01T14:56:49;3.12;;;1.40;;
58756;SDS011;44527;47.460;19.016;2023-08-01T14:59:52;6.97;;;1.42;;
58756;SDS011;44527;47.460;19.016;2023-08-01T15:02:54;8.20;;;1.27;;
58756;SDS011;44527;47.460;19.016;2023-08-01T15:06:06;4.32;;;1.20;;
58756;SDS011;44527;47.460;19.016;2023-08-01T15:09:10;2.20;;;1.37;;
58756;SDS011;44527;47.460;19.016;2023-08-01T15:12:12;3.15;;;1.30;;
58756;SDS011;44527;47.460;19.016;2023-08-01T15:15:15;3.17;;;1.37;;
58756;SDS011;44527;47.460;19.016;2023-08-01T15:18:17;3.35;;;1.48;;
58756;SDS011;44527;47.460;19.016;2023-08-01T15:21:19;5.07;;;1.37;;
58756;SDS011;44527;47.460;19.016;2023-08-01T15:24:22;3.58;;;0.95;;
58756;SDS011;44527;47.460;19.016;2023-08-01T15:27:25;4.95;;;1.45;;
58756;SDS011;44527;47.460;19.016;2023-08-01T15:30:27;5.62;;;1.37;;
58756;SDS011;44527;47.460;19.016;2023-08-01T15:33:31;2.67;;;1.20;;
58756;SDS011;44527;47.460;19.016;2023-08-01T15:36:34;7.65;;;1.90;;
58756;SDS011;44527;47.460;19.016;2023-08-01T15:39:37;4.25;;;1.50;;
58756;SDS011;44527;47.460;19.016;2023-08-01T15:42:40;5.35;;;1.27;;
58756;SDS011;44527;47.460;19.016;2023-08-01T15:45:42;4.40;;;1.80;;
58756;SDS011;44527;47.460;19.016;2023-08-01T15:48:45;10.15;;;1.83;;
58756;SDS011;44527;47.460;19.016;2023-08-01T15:51:47;5.12;;;2.08;;
58756;SDS011;44527;47.460;19.016;2023-08-01T15:54:50;3.42;;;2.00;;
58756;SDS011;44527;47.460;19.016;2023-08-01T15:57:52;4.43;;;2.20;;
58756;SDS011;44527;47.460;19.016;2023-08-01T16:00:55;4.50;;;2.35;;
58756;SDS011;44527;47.460;19.016;2023-08-01T16:03:59;5.82;;;2.28;;
58756;SDS011;44527;47.460;19.016;2023-08-01T16:07:01;6.32;;;2.60;;
58756;SDS011;44527;47.460;19.016;2023-08-01T16:10:04;7.80;;;2.67;;
58756;SDS011;44527;47.460;19.016;2023-08-01T16:13:07;8.88;;;2.37;;
58756;SDS011;44527;47.460;19.016;2023-08-01T16:16:10;7.65;;;2.65;;
58756;SDS011;44527;47.460;19.016;2023-08-01T16:19:13;7.05;;;2.30;;
58756;SDS011;44527;47.460;19.016;2023-08-01T16:22:15;6.28;;;2.45;;
58756;SDS011;44527;47.460;19.016;2023-08-01T16:25:17;3.62;;;2.00;;
58756;SDS011;44527;47.460;19.016;2023-08-01T16:28:20;5.18;;;1.90;;
58756;SDS011;44527;47.460;19.016;2023-08-01T16:31:22;5.18;;;1.40;;
58756;SDS011;44527;47.460;19.016;2023-08-01T16:34:25;3.67;;;1.75;;
58756;SDS011;44527;47.460;19.016;2023-08-01T16:37:27;3.85;;;1.40;;
58756;SDS011;44527;47.460;19.016;2023-08-01T16:40:30;4.03;;;2.22;;
58756;SDS011;44527;47.460;19.016;2023-08-01T16:43:33;4.53;;;1.67;;
58756;SDS011;44527;47.460;19.016;2023-08-01T16:46:35;3.67;;;1.60;;
58756;SDS011;44527;47.460;19.016;2023-08-01T16:49:38;2.08;;;1.30;;
58756;SDS011;44527;47.460;19.016;2023-08-01T16:52:40;5.53;;;1.50;;
58756;SDS011;44527;47.460;19.016;2023-08-01T16:55:42;3.25;;;1.30;;
58756;SDS011;44527;47.460;19.016;2023-08-01T16:58:45;1.87;;;0.90;;
58756;SDS011;44527;47.460;19.016;2023-08-01T17:01:47;7.40;;;1.50;;
58756;SDS011;44527;47.460;19.016;2023-08-01T17:04:50;1.55;;;1.20;;
58756;SDS011;44527;47.460;19.016;2023-08-01T17:07:54;2.58;;;1.00;;
58756;SDS011;44527;47.460;19.016;2023-08-01T17:10:56;1.73;;;0.80;;
58756;SDS011;44527;47.460;19.016;2023-08-01T17:13:58;1.23;;;0.68;;
58756;SDS011;44527;47.460;19.016;2023-08-01T17:17:01;2.05;;;0.70;;
58756;SDS011;44527;47.460;19.016;2023-08-01T17:20:04;1.65;;;0.60;;
58756;SDS011;44527;47.460;19.016;2023-08-01T17:23:07;1.20;;;0.60;;
58756;SDS011;44527;47.460;19.016;2023-08-01T17:26:09;1.33;;;0.40;;
58756;SDS011;44527;47.460;19.016;2023-08-01T17:29:12;1.67;;;0.70;;
58756;SDS011;44527;47.460;19.016;2023-08-01T17:32:15;1.83;;;0.73;;
58756;SDS011;44527;47.460;19.016;2023-08-01T17:35:17;4.10;;;0.60;;
58756;SDS011;44527;47.460;19.016;2023-08-01T17:38:20;0.98;;;0.50;;
58756;SDS011;44527;47.460;19.016;2023-08-01T17:41:24;7.10;;;1.15;;
58756;SDS011;44527;47.460;19.016;2023-08-01T17:44:28;2.85;;;0.75;;
58756;SDS011;44527;47.460;19.016;2023-08-01T17:47:35;1.92;;;0.70;;
58756;SDS011;44527;47.460;19.016;2023-08-01T17:50:40;1.58;;;0.93;;
58756;SDS011;44527;47.460;19.016;2023-08-01T17:53:44;3.67;;;0.68;;
58756;SDS011;44527;47.460;19.016;2023-08-01T17:56:47;2.17;;;0.80;;
58756;SDS011;44527;47.460;19.016;2023-08-01T17:59:51;1.98;;;0.70;;
58756;SDS011;44527;47.460;19.016;2023-08-01T18:02:54;2.30;;;0.47;;
58756;SDS011;44527;47.460;19.016;2023-08-01T18:06:06;1.40;;;0.60;;
58756;SDS011;44527;47.460;19.016;2023-08-01T18:09:10;3.55;;;0.40;;
58756;SDS011;44527;47.460;19.016;2023-08-01T18:12:13;2.10;;;0.40;;
58756;SDS011;44527;47.460;19.016;2023-08-01T18:15:15;1.80;;;0.68;;